sensor_id;sensor_type;location;lat;lon;timestamp;pressure;altitude;pressure_sealevel;temperature;humidity
77013;BME280;67260;53.130;17.982;2023-03-14T00:01:27;99001.98;;;10.79;77.04
77013;BME280;67260;53.130;17.982;2023-03-14T00:03:54;99004.27;;;10.79;77.00
77013;BME280;67260;53.130;17.982;2023-03-14T00:06:21;99002.93;;;10.78;76.84
77013;BME280;67260;53.130;17.982;2023-03-14T00:08:48;99007.45;;;10.78;77.00
77013;BME280;67260;53.130;17.982;2023-03-14T00:11:18;99011.27;;;10.77;76.95
77013;BME280;67260;53.130;17.982;2023-03-14T00:13:47;99014.92;;;10.78;76.86
77013;BME280;67260;53.130;17.982;2023-03-14T00:16:14;99021.15;;;10.79;76.92
77013;BME280;67260;53.130;17.982;2023-03-14T00:18:41;99016.86;;;10.80;76.79
77013;BME280;67260;53.130;17.982;2023-03-14T00:21:10;99017.66;;;10.80;76.66
77013;BME280;67260;53.130;17.982;2023-03-14T00:23:38;99015.55;;;10.80;76.62
77013;BME280;67260;53.130;17.982;2023-03-14T00:26:08;99011.78;;;10.82;76.69
77013;BME280;67260;53.130;17.982;2023-03-14T00:28:35;99009.95;;;10.84;76.62
77013;BME280;67260;53.130;17.982;2023-03-14T00:31:04;99010.10;;;10.89;76.54
77013;BME280;67260;53.130;17.982;2023-03-14T00:33:31;99015.23;;;10.92;76.33
77013;BME280;67260;53.130;17.982;2023-03-14T00:36:06;99018.42;;;10.92;76.47
77013;BME280;67260;53.130;17.982;2023-03-14T00:38:33;99016.88;;;10.91;76.32
77013;BME280;67260;53.130;17.982;2023-03-14T00:41:06;99016.80;;;10.89;76.36
77013;BME280;67260;53.130;17.982;2023-03-14T00:43:33;99016.06;;;10.89;76.23
77013;BME280;67260;53.130;17.982;2023-03-14T00:46:00;99011.48;;;10.89;76.20
77013;BME280;67260;53.130;17.982;2023-03-14T00:48:27;99002.13;;;10.89;76.19
77013;BME280;67260;53.130;17.982;2023-03-14T00:50:54;98995.97;;;10.89;76.05
77013;BME280;67260;53.130;17.982;2023-03-14T00:53:21;98992.45;;;10.88;76.03
77013;BME280;67260;53.130;17.982;2023-03-14T00:55:48;98991.75;;;10.87;76.14
77013;BME280;67260;53.130;17.982;2023-03-14T00:58:17;98982.64;;;10.85;76.14
77013;BME280;67260;53.130;17.982;2023-03-14T01:00:44;98981.73;;;10.83;75.93
77013;BME280;67260;53.130;17.982;2023-03-14T01:03:12;98978.19;;;10.80;75.91
77013;BME280;67260;53.130;17.982;2023-03-14T01:05:40;98971.42;;;10.77;75.84
77013;BME280;67260;53.130;17.982;2023-03-14T01:08:07;98963.64;;;10.74;75.72
77013;BME280;67260;53.130;17.982;2023-03-14T01:10:38;98961.67;;;10.70;76.04
77013;BME280;67260;53.130;17.982;2023-03-14T01:13:05;98960.61;;;10.65;75.80
77013;BME280;67260;53.130;17.982;2023-03-14T01:15:33;98966.05;;;10.61;75.90
77013;BME280;67260;53.130;17.982;2023-03-14T01:18:00;98963.52;;;10.59;75.94
77013;BME280;67260;53.130;17.982;2023-03-14T01:20:27;98960.96;;;10.57;75.97
77013;BME280;67260;53.130;17.982;2023-03-14T01:22:54;98953.45;;;10.55;75.88
77013;BME280;67260;53.130;17.982;2023-03-14T01:25:21;98956.14;;;10.54;75.81
77013;BME280;67260;53.130;17.982;2023-03-14T01:27:48;98954.48;;;10.54;75.85
77013;BME280;67260;53.130;17.982;2023-03-14T01:30:15;98957.73;;;10.53;76.00
77013;BME280;67260;53.130;17.982;2023-03-14T01:32:41;98950.92;;;10.53;75.86
77013;BME280;67260;53.130;17.982;2023-03-14T01:35:08;98940.95;;;10.53;75.92
77013;BME280;67260;53.130;17.982;2023-03-14T01:37:35;98938.30;;;10.53;75.97
77013;BME280;67260;53.130;17.982;2023-03-14T01:40:03;98937.28;;;10.53;75.89
77013;BME280;67260;53.130;17.982;2023-03-14T01:42:31;98935.06;;;10.53;75.86
77013;BME280;67260;53.130;17.982;2023-03-14T01:45:01;98934.19;;;10.52;76.03
77013;BME280;67260;53.130;17.982;2023-03-14T01:47:28;98932.17;;;10.52;76.01
77013;BME280;67260;53.130;17.982;2023-03-14T01:50:08;98925.84;;;10.51;76.20
77013;BME280;67260;53.130;17.982;2023-03-14T01:52:44;98921.63;;;10.53;76.13
77013;BME280;67260;53.130;17.982;2023-03-14T01:55:20;98917.09;;;10.57;76.17
77013;BME280;67260;53.130;17.982;2023-03-14T01:57:59;98910.84;;;10.59;76.14
77013;BME280;67260;53.130;17.982;2023-03-14T02:00:27;98901.80;;;10.63;76.05
77013;BME280;67260;53.130;17.982;2023-03-14T02:03:05;98904.58;;;10.65;76.08
77013;BME280;67260;53.130;17.982;2023-03-14T02:05:38;98892.23;;;10.66;76.11
77013;BME280;67260;53.130;17.982;2023-03-14T02:08:18;98888.70;;;10.65;76.18
77013;BME280;67260;53.130;17.982;2023-03-14T02:10:51;98886.39;;;10.62;76.30
77013;BME280;67260;53.130;17.982;2023-03-14T02:13:23;98897.73;;;10.59;76.27
77013;BME280;67260;53.130;17.982;2023-03-14T02:16:14;98896.59;;;10.57;76.38
77013;BME280;67260;53.130;17.982;2023-03-14T02:18:52;98894.41;;;10.56;76.54
77013;BME280;67260;53.130;17.982;2023-03-14T02:21:54;98894.34;;;10.54;76.44
77013;BME280;67260;53.130;17.982;2023-03-14T02:27:09;98903.21;;;10.50;76.65
77013;BME280;67260;53.130;17.982;2023-03-14T02:30:05;98899.81;;;10.50;76.79
77013;BME280;67260;53.130;17.982;2023-03-14T02:32:36;98904.73;;;10.54;76.72
77013;BME280;67260;53.130;17.982;2023-03-14T02:35:09;98906.31;;;10.62;76.78
77013;BME280;67260;53.130;17.982;2023-03-14T02:37:46;98898.05;;;10.70;76.65
77013;BME280;67260;53.130;17.982;2023-03-14T02:40:14;98900.56;;;10.78;76.53
77013;BME280;67260;53.130;17.982;2023-03-14T02:42:41;98892.59;;;10.84;76.70
77013;BME280;67260;53.130;17.982;2023-03-14T02:47:43;98889.23;;;10.96;76.61
77013;BME280;67260;53.130;17.982;2023-03-14T02:50:15;98888.20;;;11.00;76.64
77013;BME280;67260;53.130;17.982;2023-03-14T02:52:44;98897.13;;;11.05;76.45
77013;BME280;67260;53.130;17.982;2023-03-14T02:55:10;98899.61;;;11.10;76.55
77013;BME280;67260;53.130;17.982;2023-03-14T02:57:38;98907.02;;;11.14;76.36
77013;BME280;67260;53.130;17.982;2023-03-14T03:00:06;98901.30;;;11.19;76.40
77013;BME280;67260;53.130;17.982;2023-03-14T03:02:35;98913.35;;;11.22;76.44
77013;BME280;67260;53.130;17.982;2023-03-14T03:05:02;98917.35;;;11.24;76.30
77013;BME280;67260;53.130;17.982;2023-03-14T03:07:29;98921.88;;;11.25;76.30
77013;BME280;67260;53.130;17.982;2023-03-14T03:09:56;98917.59;;;11.28;76.35
77013;BME280;67260;53.130;17.982;2023-03-14T03:12:23;98918.95;;;11.31;76.31
77013;BME280;67260;53.130;17.982;2023-03-14T03:14:49;98919.08;;;11.34;76.22
77013;BME280;67260;53.130;17.982;2023-03-14T03:17:16;98923.04;;;11.38;76.23
77013;BME280;67260;53.130;17.982;2023-03-14T03:19:43;98919.60;;;11.41;76.27
77013;BME280;67260;53.130;17.982;2023-03-14T03:22:10;98911.37;;;11.43;76.28
77013;BME280;67260;53.130;17.982;2023-03-14T03:24:40;98905.24;;;11.45;76.25
77013;BME280;67260;53.130;17.982;2023-03-14T03:27:07;98904.94;;;11.47;76.23
77013;BME280;67260;53.130;17.982;2023-03-14T03:29:34;98895.79;;;11.47;76.28
77013;BME280;67260;53.130;17.982;2023-03-14T03:32:01;98891.42;;;11.47;76.28
77013;BME280;67260;53.130;17.982;2023-03-14T03:34:28;98890.63;;;11.46;76.38
77013;BME280;67260;53.130;17.982;2023-03-14T03:36:56;98891.15;;;11.45;76.39
77013;BME280;67260;53.130;17.982;2023-03-14T03:39:23;98903.97;;;11.45;76.40
77013;BME280;67260;53.130;17.982;2023-03-14T03:41:50;98903.75;;;11.45;76.56
77013;BME280;67260;53.130;17.982;2023-03-14T03:44:17;98898.91;;;11.46;76.64
77013;BME280;67260;53.130;17.982;2023-03-14T03:46:43;98894.92;;;11.44;76.84
77013;BME280;67260;53.130;17.982;2023-03-14T03:49:10;98896.20;;;11.42;76.91
77013;BME280;67260;53.130;17.982;2023-03-14T03:51:37;98891.34;;;11.38;77.05
77013;BME280;67260;53.130;17.982;2023-03-14T03:54:04;98883.94;;;11.35;77.17
77013;BME280;67260;53.130;17.982;2023-03-14T03:56:33;98871.73;;;11.30;77.19
77013;BME280;67260;53.130;17.982;2023-03-14T03:59:00;98858.63;;;11.26;77.40
77013;BME280;67260;53.130;17.982;2023-03-14T04:01:26;98845.72;;;11.20;77.50
77013;BME280;67260;53.130;17.982;2023-03-14T04:03:53;98826.92;;;11.14;77.69
77013;BME280;67260;53.130;17.982;2023-03-14T04:06:20;98817.15;;;11.06;77.84
77013;BME280;67260;53.130;17.982;2023-03-14T04:08:49;98820.09;;;11.01;77.79
77013;BME280;67260;53.130;17.982;2023-03-14T04:11:29;98809.30;;;10.94;78.29
77013;BME280;67260;53.130;17.982;2023-03-14T04:14:04;98800.83;;;10.89;78.24
77013;BME280;67260;53.130;17.982;2023-03-14T04:16:31;98801.92;;;10.87;78.48
77013;BME280;67260;53.130;17.982;2023-03-14T04:19:04;98809.02;;;10.83;78.68
77013;BME280;67260;53.130;17.982;2023-03-14T04:21:31;98821.84;;;10.79;78.60
77013;BME280;67260;53.130;17.982;2023-03-14T04:23:58;98817.70;;;10.77;78.75
77013;BME280;67260;53.130;17.982;2023-03-14T04:26:28;98809.02;;;10.76;78.90
77013;BME280;67260;53.130;17.982;2023-03-14T04:28:55;98809.71;;;10.77;79.03
77013;BME280;67260;53.130;17.982;2023-03-14T04:31:22;98800.42;;;10.77;79.07
77013;BME280;67260;53.130;17.982;2023-03-14T04:33:51;98789.17;;;10.79;79.24
77013;BME280;67260;53.130;17.982;2023-03-14T04:36:24;98784.49;;;10.78;79.31
77013;BME280;67260;53.130;17.982;2023-03-14T04:38:50;98778.75;;;10.76;79.20
77013;BME280;67260;53.130;17.982;2023-03-14T04:41:20;98780.11;;;10.75;79.38
77013;BME280;67260;53.130;17.982;2023-03-14T04:43:47;98779.36;;;10.74;79.44
77013;BME280;67260;53.130;17.982;2023-03-14T04:46:14;98768.26;;;10.74;79.44
77013;BME280;67260;53.130;17.982;2023-03-14T04:48:41;98768.32;;;10.74;79.57
77013;BME280;67260;53.130;17.982;2023-03-14T04:51:08;98773.11;;;10.75;79.55
77013;BME280;67260;53.130;17.982;2023-03-14T04:53:36;98774.86;;;10.76;79.42
77013;BME280;67260;53.130;17.982;2023-03-14T04:56:07;98776.94;;;10.77;79.56
77013;BME280;67260;53.130;17.982;2023-03-14T04:58:37;98777.09;;;10.77;79.53
77013;BME280;67260;53.130;17.982;2023-03-14T05:01:05;98781.19;;;10.77;79.48
77013;BME280;67260;53.130;17.982;2023-03-14T05:03:52;98782.45;;;10.75;79.44
77013;BME280;67260;53.130;17.982;2023-03-14T05:06:32;98782.75;;;10.71;79.82
77013;BME280;67260;53.130;17.982;2023-03-14T05:09:07;98782.98;;;10.67;79.63
77013;BME280;67260;53.130;17.982;2023-03-14T05:11:52;98770.30;;;10.62;79.67
77013;BME280;67260;53.130;17.982;2023-03-14T05:14:32;98758.84;;;10.57;79.71
77013;BME280;67260;53.130;17.982;2023-03-14T05:17:17;98756.98;;;10.49;79.57
77013;BME280;67260;53.130;17.982;2023-03-14T05:20:04;98759.11;;;10.41;79.74
77013;BME280;67260;53.130;17.982;2023-03-14T05:22:53;98777.25;;;10.32;80.04
77013;BME280;67260;53.130;17.982;2023-03-14T05:25:43;98781.55;;;10.25;79.81
77013;BME280;67260;53.130;17.982;2023-03-14T05:28:31;98796.48;;;10.19;80.15
77013;BME280;67260;53.130;17.982;2023-03-14T05:31:09;98795.81;;;10.16;80.13
77013;BME280;67260;53.130;17.982;2023-03-14T05:33:51;98782.70;;;10.15;79.84
77013;BME280;67260;53.130;17.982;2023-03-14T05:36:35;98775.73;;;10.13;79.89
77013;BME280;67260;53.130;17.982;2023-03-14T05:39:22;98787.94;;;10.14;79.57
77013;BME280;67260;53.130;17.982;2023-03-14T05:41:58;98777.45;;;10.15;79.23
77013;BME280;67260;53.130;17.982;2023-03-14T05:44:49;98770.60;;;10.16;79.04
77013;BME280;67260;53.130;17.982;2023-03-14T05:47:39;98779.21;;;10.16;78.84
77013;BME280;67260;53.130;17.982;2023-03-14T05:50:28;98774.38;;;10.16;78.29
77013;BME280;67260;53.130;17.982;2023-03-14T05:53:20;98775.27;;;10.15;78.27
77013;BME280;67260;53.130;17.982;2023-03-14T05:55:55;98785.65;;;10.13;78.12
77013;BME280;67260;53.130;17.982;2023-03-14T05:58:34;98791.77;;;10.14;77.79
77013;BME280;67260;53.130;17.982;2023-03-14T06:01:10;98783.48;;;10.18;77.53
77013;BME280;67260;53.130;17.982;2023-03-14T06:03:44;98778.23;;;10.24;77.27
77013;BME280;67260;53.130;17.982;2023-03-14T06:06:11;98775.80;;;10.29;77.07
77013;BME280;67260;53.130;17.982;2023-03-14T06:08:38;98778.95;;;10.32;76.70
77013;BME280;67260;53.130;17.982;2023-03-14T06:11:05;98782.44;;;10.35;76.74
77013;BME280;67260;53.130;17.982;2023-03-14T06:13:32;98785.38;;;10.38;76.46
77013;BME280;67260;53.130;17.982;2023-03-14T06:15:59;98794.58;;;10.42;76.19
77013;BME280;67260;53.130;17.982;2023-03-14T06:18:25;98801.88;;;10.46;75.78
77013;BME280;67260;53.130;17.982;2023-03-14T06:20:56;98797.88;;;10.50;75.42
77013;BME280;67260;53.130;17.982;2023-03-14T06:23:25;98804.81;;;10.54;75.22
77013;BME280;67260;53.130;17.982;2023-03-14T06:25:52;98807.81;;;10.58;75.02
77013;BME280;67260;53.130;17.982;2023-03-14T06:28:20;98816.73;;;10.64;74.93
77013;BME280;67260;53.130;17.982;2023-03-14T06:30:47;98808.48;;;10.68;74.81
77013;BME280;67260;53.130;17.982;2023-03-14T06:33:14;98809.93;;;10.70;74.55
77013;BME280;67260;53.130;17.982;2023-03-14T06:35:42;98812.08;;;10.73;74.56
77013;BME280;67260;53.130;17.982;2023-03-14T06:38:08;98808.27;;;10.75;74.12
77013;BME280;67260;53.130;17.982;2023-03-14T06:40:35;98803.66;;;10.78;74.22
77013;BME280;67260;53.130;17.982;2023-03-14T06:43:09;98802.89;;;10.80;74.29
77013;BME280;67260;53.130;17.982;2023-03-14T06:45:38;98792.66;;;10.84;74.22
77013;BME280;67260;53.130;17.982;2023-03-14T06:48:05;98792.11;;;10.88;74.22
77013;BME280;67260;53.130;17.982;2023-03-14T06:50:37;98792.13;;;10.92;74.04
77013;BME280;67260;53.130;17.982;2023-03-14T06:53:04;98793.63;;;10.94;73.77
77013;BME280;67260;53.130;17.982;2023-03-14T06:55:32;98792.25;;;10.95;73.65
77013;BME280;67260;53.130;17.982;2023-03-14T06:57:59;98792.02;;;10.98;73.43
77013;BME280;67260;53.130;17.982;2023-03-14T07:00:25;98785.40;;;11.04;73.58
77013;BME280;67260;53.130;17.982;2023-03-14T07:02:55;98784.29;;;11.11;73.17
77013;BME280;67260;53.130;17.982;2023-03-14T07:05:30;98797.98;;;11.20;73.35
77013;BME280;67260;53.130;17.982;2023-03-14T07:07:57;98798.27;;;11.30;72.90
77013;BME280;67260;53.130;17.982;2023-03-14T07:10:24;98792.45;;;11.39;72.80
77013;BME280;67260;53.130;17.982;2023-03-14T07:12:51;98792.30;;;11.48;72.43
77013;BME280;67260;53.130;17.982;2023-03-14T07:15:19;98790.06;;;11.60;72.18
77013;BME280;67260;53.130;17.982;2023-03-14T07:17:50;98793.45;;;11.71;71.86
77013;BME280;67260;53.130;17.982;2023-03-14T07:20:18;98790.97;;;11.81;71.98
77013;BME280;67260;53.130;17.982;2023-03-14T07:22:48;98785.77;;;11.89;71.65
77013;BME280;67260;53.130;17.982;2023-03-14T07:25:17;98785.58;;;11.96;71.62
77013;BME280;67260;53.130;17.982;2023-03-14T07:27:45;98776.13;;;12.04;71.39
77013;BME280;67260;53.130;17.982;2023-03-14T07:30:14;98790.52;;;12.15;71.32
77013;BME280;67260;53.130;17.982;2023-03-14T07:32:41;98792.50;;;12.28;70.77
77013;BME280;67260;53.130;17.982;2023-03-14T07:35:08;98789.05;;;12.35;70.63
77013;BME280;67260;53.130;17.982;2023-03-14T07:37:36;98793.27;;;12.42;70.48
77013;BME280;67260;53.130;17.982;2023-03-14T07:40:04;98795.92;;;12.47;70.04
77013;BME280;67260;53.130;17.982;2023-03-14T07:42:37;98794.35;;;12.54;69.93
77013;BME280;67260;53.130;17.982;2023-03-14T07:45:15;98794.99;;;12.60;70.08
77013;BME280;67260;53.130;17.982;2023-03-14T07:47:42;98788.70;;;12.64;69.98
77013;BME280;67260;53.130;17.982;2023-03-14T07:50:09;98789.61;;;12.67;69.98
77013;BME280;67260;53.130;17.982;2023-03-14T07:52:36;98789.02;;;12.73;69.69
77013;BME280;67260;53.130;17.982;2023-03-14T07:55:06;98776.91;;;12.81;69.27
77013;BME280;67260;53.130;17.982;2023-03-14T07:57:33;98778.88;;;12.90;69.04
77013;BME280;67260;53.130;17.982;2023-03-14T07:59:59;98780.30;;;12.99;69.07
77013;BME280;67260;53.130;17.982;2023-03-14T08:02:26;98775.11;;;13.07;68.96
77013;BME280;67260;53.130;17.982;2023-03-14T08:04:53;98776.16;;;13.14;68.74
77013;BME280;67260;53.130;17.982;2023-03-14T08:07:20;98774.36;;;13.16;68.18
77013;BME280;67260;53.130;17.982;2023-03-14T08:09:48;98766.98;;;13.14;68.53
77013;BME280;67260;53.130;17.982;2023-03-14T08:12:14;98762.36;;;13.19;68.34
77013;BME280;67260;53.130;17.982;2023-03-14T08:14:42;98759.86;;;13.20;68.13
77013;BME280;67260;53.130;17.982;2023-03-14T08:17:09;98754.36;;;13.21;67.89
77013;BME280;67260;53.130;17.982;2023-03-14T08:19:36;98751.45;;;13.17;68.03
77013;BME280;67260;53.130;17.982;2023-03-14T08:22:03;98757.95;;;13.16;68.11
77013;BME280;67260;53.130;17.982;2023-03-14T08:24:31;98758.58;;;13.19;68.11
77013;BME280;67260;53.130;17.982;2023-03-14T08:26:58;98758.46;;;13.24;67.80
77013;BME280;67260;53.130;17.982;2023-03-14T08:29:24;98756.98;;;13.34;67.62
77013;BME280;67260;53.130;17.982;2023-03-14T08:31:51;98755.23;;;13.44;67.34
77013;BME280;67260;53.130;17.982;2023-03-14T08:34:18;98757.73;;;13.54;67.43
77013;BME280;67260;53.130;17.982;2023-03-14T08:36:44;98759.29;;;13.63;66.95
77013;BME280;67260;53.130;17.982;2023-03-14T08:39:11;98770.85;;;13.66;66.50
77013;BME280;67260;53.130;17.982;2023-03-14T08:41:38;98782.33;;;13.66;66.49
77013;BME280;67260;53.130;17.982;2023-03-14T08:44:07;98779.40;;;13.64;66.70
77013;BME280;67260;53.130;17.982;2023-03-14T08:46:35;98778.34;;;13.61;66.45
77013;BME280;67260;53.130;17.982;2023-03-14T08:49:01;98777.64;;;13.53;66.50
77013;BME280;67260;53.130;17.982;2023-03-14T08:51:28;98782.50;;;13.44;66.50
77013;BME280;67260;53.130;17.982;2023-03-14T08:53:55;98784.19;;;13.34;66.53
77013;BME280;67260;53.130;17.982;2023-03-14T08:56:21;98789.70;;;13.31;66.53
77013;BME280;67260;53.130;17.982;2023-03-14T08:58:48;98794.94;;;13.24;66.68
77013;BME280;67260;53.130;17.982;2023-03-14T09:01:16;98802.04;;;13.18;66.77
77013;BME280;67260;53.130;17.982;2023-03-14T09:03:42;98801.03;;;13.18;67.11
77013;BME280;67260;53.130;17.982;2023-03-14T09:06:10;98801.17;;;13.26;66.96
77013;BME280;67260;53.130;17.982;2023-03-14T09:08:36;98807.02;;;13.32;66.93
77013;BME280;67260;53.130;17.982;2023-03-14T09:11:07;98799.06;;;13.39;66.75
77013;BME280;67260;53.130;17.982;2023-03-14T09:13:33;98788.73;;;13.48;66.48
77013;BME280;67260;53.130;17.982;2023-03-14T09:16:00;98791.89;;;13.61;66.38
77013;BME280;67260;53.130;17.982;2023-03-14T09:18:27;98794.95;;;13.71;66.00
77013;BME280;67260;53.130;17.982;2023-03-14T09:20:55;98785.02;;;13.73;65.58
77013;BME280;67260;53.130;17.982;2023-03-14T09:23:22;98773.26;;;13.78;65.79
77013;BME280;67260;53.130;17.982;2023-03-14T09:25:49;98774.58;;;13.88;65.68
77013;BME280;67260;53.130;17.982;2023-03-14T09:28:15;98770.88;;;14.00;65.59
77013;BME280;67260;53.130;17.982;2023-03-14T09:30:42;98771.01;;;14.16;65.23
77013;BME280;67260;53.130;17.982;2023-03-14T09:33:09;98763.62;;;14.32;64.90
77013;BME280;67260;53.130;17.982;2023-03-14T09:35:36;98763.85;;;14.46;64.78
77013;BME280;67260;53.130;17.982;2023-03-14T09:38:03;98772.64;;;14.60;64.39
77013;BME280;67260;53.130;17.982;2023-03-14T09:40:35;98774.59;;;14.70;63.36
77013;BME280;67260;53.130;17.982;2023-03-14T09:43:02;98780.70;;;14.73;62.85
77013;BME280;67260;53.130;17.982;2023-03-14T09:45:36;98782.92;;;14.76;63.35
77013;BME280;67260;53.130;17.982;2023-03-14T09:48:04;98781.06;;;14.86;63.41
77013;BME280;67260;53.130;17.982;2023-03-14T09:50:43;98776.44;;;14.95;62.46
77013;BME280;67260;53.130;17.982;2023-03-14T09:53:15;98779.50;;;15.04;62.36
77013;BME280;67260;53.130;17.982;2023-03-14T09:55:45;98782.93;;;15.14;61.93
77013;BME280;67260;53.130;17.982;2023-03-14T09:58:14;98778.05;;;15.09;61.89
77013;BME280;67260;53.130;17.982;2023-03-14T10:00:42;98779.35;;;14.97;62.02
77013;BME280;67260;53.130;17.982;2023-03-14T10:05:40;98781.55;;;14.86;61.61
77013;BME280;67260;53.130;17.982;2023-03-14T10:08:11;98781.20;;;14.78;61.52
77013;BME280;67260;53.130;17.982;2023-03-14T10:10:38;98779.10;;;14.74;61.23
77013;BME280;67260;53.130;17.982;2023-03-14T10:13:27;98780.92;;;14.66;61.51
77013;BME280;67260;53.130;17.982;2023-03-14T10:16:00;98775.67;;;14.68;61.97
77013;BME280;67260;53.130;17.982;2023-03-14T10:18:30;98780.69;;;14.86;61.91
77013;BME280;67260;53.130;17.982;2023-03-14T10:23:49;98783.91;;;15.12;60.39
77013;BME280;67260;53.130;17.982;2023-03-14T10:26:18;98782.80;;;15.10;59.89
77013;BME280;67260;53.130;17.982;2023-03-14T10:28:48;98785.64;;;15.04;59.83
77013;BME280;67260;53.130;17.982;2023-03-14T10:31:18;98784.94;;;15.01;59.78
77013;BME280;67260;53.130;17.982;2023-03-14T10:34:01;98776.23;;;15.10;60.17
77013;BME280;67260;53.130;17.982;2023-03-14T10:36:30;98773.38;;;15.17;59.02
77013;BME280;67260;53.130;17.982;2023-03-14T10:41:53;98772.65;;;15.24;58.75
77013;BME280;67260;53.130;17.982;2023-03-14T10:44:23;98767.34;;;15.26;57.97
77013;BME280;67260;53.130;17.982;2023-03-14T10:47:16;98761.56;;;15.26;58.48
77013;BME280;67260;53.130;17.982;2023-03-14T10:49:43;98765.59;;;15.34;58.95
77013;BME280;67260;53.130;17.982;2023-03-14T10:52:25;98765.64;;;15.38;58.71
77013;BME280;67260;53.130;17.982;2023-03-14T10:55:09;98770.02;;;15.39;58.10
77013;BME280;67260;53.130;17.982;2023-03-14T10:57:41;98769.59;;;15.25;57.95
77013;BME280;67260;53.130;17.982;2023-03-14T11:00:20;98769.98;;;15.13;58.66
77013;BME280;67260;53.130;17.982;2023-03-14T11:03:08;98775.09;;;15.07;58.81
77013;BME280;67260;53.130;17.982;2023-03-14T11:05:41;98781.38;;;14.93;58.67
77013;BME280;67260;53.130;17.982;2023-03-14T11:11:21;98776.97;;;14.90;59.01
77013;BME280;67260;53.130;17.982;2023-03-14T11:14:12;98775.16;;;14.84;59.14
77013;BME280;67260;53.130;17.982;2023-03-14T11:22:05;98779.14;;;14.97;59.30
77013;BME280;67260;53.130;17.982;2023-03-14T11:25:00;98775.96;;;15.16;59.26
77013;BME280;67260;53.130;17.982;2023-03-14T11:27:48;98768.66;;;15.40;58.86
77013;BME280;67260;53.130;17.982;2023-03-14T11:33:14;98783.89;;;15.78;58.03
77013;BME280;67260;53.130;17.982;2023-03-14T11:35:47;98784.59;;;15.86;58.09
77013;BME280;67260;53.130;17.982;2023-03-14T11:38:46;98783.12;;;15.95;57.90
77013;BME280;67260;53.130;17.982;2023-03-14T11:41:17;98780.48;;;15.96;57.12
77013;BME280;67260;53.130;17.982;2023-03-14T11:43:53;98781.36;;;15.83;57.64
77013;BME280;67260;53.130;17.982;2023-03-14T11:46:25;98779.74;;;15.91;57.45
77013;BME280;67260;53.130;17.982;2023-03-14T11:51:35;98779.88;;;16.02;56.81
77013;BME280;67260;53.130;17.982;2023-03-14T11:56:58;98785.61;;;15.89;56.85
77013;BME280;67260;53.130;17.982;2023-03-14T11:59:45;98782.50;;;15.86;56.85
77013;BME280;67260;53.130;17.982;2023-03-14T12:07:47;98774.62;;;15.66;57.22
77013;BME280;67260;53.130;17.982;2023-03-14T12:10:22;98772.95;;;15.59;57.46
77013;BME280;67260;53.130;17.982;2023-03-14T12:12:49;98763.25;;;15.58;57.60
77013;BME280;67260;53.130;17.982;2023-03-14T12:15:21;98759.58;;;15.54;57.57
77013;BME280;67260;53.130;17.982;2023-03-14T12:17:55;98756.90;;;15.35;57.88
77013;BME280;67260;53.130;17.982;2023-03-14T12:20:24;98749.09;;;15.17;58.11
77013;BME280;67260;53.130;17.982;2023-03-14T12:23:12;98753.27;;;15.01;58.34
77013;BME280;67260;53.130;17.982;2023-03-14T12:25:38;98747.71;;;14.90;58.49
77013;BME280;67260;53.130;17.982;2023-03-14T12:28:20;98749.70;;;15.05;58.43
77013;BME280;67260;53.130;17.982;2023-03-14T12:30:47;98751.21;;;15.41;57.95
77013;BME280;67260;53.130;17.982;2023-03-14T12:35:45;98748.77;;;15.85;57.56
77013;BME280;67260;53.130;17.982;2023-03-14T12:41:53;98742.01;;;15.86;57.30
77013;BME280;67260;53.130;17.982;2023-03-14T12:47:00;98734.89;;;15.50;57.51
77013;BME280;67260;53.130;17.982;2023-03-14T12:49:41;98736.64;;;15.65;57.51
77013;BME280;67260;53.130;17.982;2023-03-14T12:52:19;98732.05;;;15.78;57.04
77013;BME280;67260;53.130;17.982;2023-03-14T12:55:12;98730.38;;;15.80;57.42
77013;BME280;67260;53.130;17.982;2023-03-14T12:57:45;98731.41;;;15.82;57.58
77013;BME280;67260;53.130;17.982;2023-03-14T13:00:44;98730.69;;;15.76;57.46
77013;BME280;67260;53.130;17.982;2023-03-14T13:03:18;98739.57;;;15.57;57.40
77013;BME280;67260;53.130;17.982;2023-03-14T13:05:56;98737.90;;;15.53;57.75
77013;BME280;67260;53.130;17.982;2023-03-14T13:08:39;98735.58;;;15.47;57.96
77013;BME280;67260;53.130;17.982;2023-03-14T13:11:16;98734.56;;;15.42;57.98
77013;BME280;67260;53.130;17.982;2023-03-14T13:13:56;98727.59;;;15.47;57.89
77013;BME280;67260;53.130;17.982;2023-03-14T13:16:24;98724.73;;;15.53;57.87
77013;BME280;67260;53.130;17.982;2023-03-14T13:19:00;98722.36;;;15.60;57.89
77013;BME280;67260;53.130;17.982;2023-03-14T13:21:34;98727.09;;;15.72;57.82
77013;BME280;67260;53.130;17.982;2023-03-14T13:24:05;98734.90;;;15.74;57.76
77013;BME280;67260;53.130;17.982;2023-03-14T13:26:38;98731.89;;;15.63;57.82
77013;BME280;67260;53.130;17.982;2023-03-14T13:31:45;98730.34;;;15.46;58.16
77013;BME280;67260;53.130;17.982;2023-03-14T13:34:12;98733.08;;;15.27;58.39
77013;BME280;67260;53.130;17.982;2023-03-14T13:36:39;98728.99;;;15.05;58.79
77013;BME280;67260;53.130;17.982;2023-03-14T13:39:28;98731.73;;;14.89;59.31
77013;BME280;67260;53.130;17.982;2023-03-14T13:42:00;98729.82;;;14.78;59.67
77013;BME280;67260;53.130;17.982;2023-03-14T13:44:35;98733.42;;;14.76;59.76
77013;BME280;67260;53.130;17.982;2023-03-14T13:47:09;98733.02;;;14.74;59.91
77013;BME280;67260;53.130;17.982;2023-03-14T13:49:37;98740.17;;;14.68;59.83
77013;BME280;67260;53.130;17.982;2023-03-14T13:52:21;98741.80;;;14.61;59.99
77013;BME280;67260;53.130;17.982;2023-03-14T13:54:53;98734.69;;;14.52;59.84
77013;BME280;67260;53.130;17.982;2023-03-14T13:57:20;98734.15;;;14.46;59.94
77013;BME280;67260;53.130;17.982;2023-03-14T14:00:05;98727.93;;;14.48;60.18